createdAt,value
2019-01-30T00:00:39.329Z,72.61
2019-01-30T00:03:45.343Z,72.35
2019-01-30T00:06:51.339Z,73.38
2019-01-30T00:09:57.198Z,72.83
2019-01-30T00:13:03.073Z,71.99
2019-01-30T00:16:09.055Z,71.93
2019-01-30T00:19:15.097Z,72.97
2019-01-30T00:22:21.056Z,73.06
2019-01-30T00:25:27.024Z,73.66
2019-01-30T00:28:32.884Z,73.46
2019-01-30T00:31:38.977Z,72.65
2019-01-30T00:34:44.820Z,74.28
2019-01-30T00:37:50.672Z,73.67
2019-01-30T00:40:56.697Z,73.26
2019-01-30T00:44:02.616Z,72.96
2019-01-30T00:47:15.837Z,72.52
2019-01-30T00:50:17.299Z,71.94
2019-01-30T00:53:23.253Z,72.41
2019-01-30T00:56:29.125Z,72.46
2019-01-30T00:59:35.059Z,73.66
2019-01-30T01:02:41.031Z,73.22
2019-01-30T01:05:47.093Z,74.62
2019-01-30T01:08:54.096Z,74.64
2019-01-30T01:11:59.943Z,74.95
2019-01-30T01:15:08.099Z,73.46
2019-01-30T01:18:14.054Z,74.14
2019-01-30T01:21:20.006Z,76.00
2019-01-30T01:24:25.822Z,74.85
2019-01-30T01:27:31.782Z,74.75
2019-01-30T01:30:37.776Z,73.31
2019-01-30T01:33:43.719Z,73.14
2019-01-30T01:36:49.563Z,72.31
2019-01-30T01:39:55.423Z,71.92
2019-01-30T01:43:01.314Z,71.16
2019-01-30T01:46:07.331Z,71.21
2019-01-30T01:49:13.210Z,70.68
2019-01-30T01:52:19.231Z,70.94
2019-01-30T01:55:25.078Z,71.15
2019-01-30T01:58:31.079Z,71.15
2019-01-30T02:01:36.944Z,72.02
2019-01-30T02:04:42.802Z,71.55
2019-01-30T02:07:48.806Z,72.10
2019-01-30T02:10:54.674Z,73.09
2019-01-30T02:14:00.538Z,72.82
2019-01-30T02:17:06.489Z,74.82
2019-01-30T02:20:18.032Z,75.39
2019-01-30T02:23:23.981Z,74.23
2019-01-30T02:26:29.809Z,74.67
2019-01-30T02:29:35.689Z,75.03
2019-01-30T02:32:41.519Z,77.72
2019-01-30T02:35:47.498Z,78.41
2019-01-30T02:38:53.545Z,79.36
2019-01-30T02:41:59.906Z,77.59
2019-01-30T02:45:06.712Z,76.08
2019-01-30T02:48:12.581Z,75.22
2019-01-30T02:51:18.545Z,74.57
2019-01-30T02:54:24.420Z,74.68
2019-01-30T02:57:30.285Z,74.00
2019-01-30T03:00:37.985Z,74.78
2019-01-30T03:03:43.878Z,74.18
2019-01-30T03:06:49.843Z,73.55
2019-01-30T03:09:55.702Z,73.57
2019-01-30T03:13:01.589Z,74.69
2019-01-30T03:16:07.438Z,73.84
2019-01-30T03:19:13.338Z,75.08
2019-01-30T03:22:19.200Z,76.36
2019-01-30T03:25:25.937Z,75.86
2019-01-30T03:28:31.800Z,74.75
2019-01-30T03:31:37.709Z,74.44
2019-01-30T03:34:43.611Z,73.90
2019-01-30T03:37:49.811Z,74.45
2019-01-30T03:40:55.831Z,73.59
2019-01-30T03:44:01.717Z,73.34
2019-01-30T03:47:07.680Z,73.56
2019-01-30T03:50:14.074Z,73.07
2019-01-30T03:53:20.045Z,73.62
2019-01-30T03:56:25.894Z,73.35
2019-01-30T03:59:31.725Z,72.69
2019-01-30T04:02:37.584Z,72.77
2019-01-30T04:05:43.418Z,72.68
2019-01-30T04:08:49.394Z,73.01
2019-01-30T04:11:55.263Z,73.43
2019-01-30T04:15:01.235Z,72.97
2019-01-30T04:18:07.084Z,72.82
2019-01-30T04:21:12.920Z,73.02
2019-01-30T04:24:18.780Z,72.98
2019-01-30T04:27:24.644Z,73.82
2019-01-30T04:30:30.519Z,73.96
2019-01-30T04:33:36.458Z,73.16
2019-01-30T04:36:42.310Z,73.16
2019-01-30T04:39:48.196Z,73.50
2019-01-30T04:42:54.046Z,72.81
2019-01-30T04:46:00.108Z,72.72
2019-01-30T04:49:06.065Z,72.54
2019-01-30T04:52:11.926Z,72.53
2019-01-30T04:55:18.310Z,73.51
2019-01-30T04:58:24.159Z,73.99
2019-01-30T05:01:29.995Z,73.21
2019-01-30T05:04:35.930Z,72.51
2019-01-30T05:07:42.044Z,73.80
2019-01-30T05:10:47.982Z,73.41
2019-01-30T05:13:53.947Z,72.72
2019-01-30T05:16:59.965Z,73.83
2019-01-30T05:20:09.584Z,74.89
2019-01-30T05:23:14.387Z,75.74
2019-01-30T05:26:20.230Z,74.55
2019-01-30T05:29:26.177Z,74.43
2019-01-30T05:32:32.021Z,74.75
2019-01-30T05:35:38.240Z,74.48
2019-01-30T05:38:44.075Z,73.17
2019-01-30T05:41:49.925Z,73.34
2019-01-30T05:44:55.877Z,74.29
2019-01-30T05:48:01.737Z,73.96
2019-01-30T05:51:07.704Z,72.98
2019-01-30T05:54:13.541Z,72.96
2019-01-30T05:57:19.468Z,74.83
2019-01-30T06:00:34.428Z,73.82
2019-01-30T06:03:40.282Z,73.55
2019-01-30T06:06:46.322Z,74.47
2019-01-30T06:09:52.271Z,73.49
2019-01-30T06:12:58.221Z,72.93
2019-01-30T06:16:04.204Z,72.35
2019-01-30T06:19:10.302Z,71.99
2019-01-30T06:22:16.221Z,72.08
2019-01-30T06:25:22.334Z,72.26
2019-01-30T06:28:29.373Z,72.50
2019-01-30T06:31:35.542Z,72.54
2019-01-30T06:34:41.356Z,71.98
2019-01-30T06:37:47.472Z,72.71
2019-01-30T06:40:53.424Z,72.33
2019-01-30T06:44:00.402Z,72.49
2019-01-30T06:47:06.541Z,71.97
2019-01-30T06:50:13.161Z,72.67
2019-01-30T06:53:19.017Z,73.13
2019-01-30T06:56:24.910Z,73.79
2019-01-30T06:59:30.738Z,74.20
2019-01-30T07:02:36.718Z,73.15
2019-01-30T07:05:42.769Z,72.62
2019-01-30T07:08:48.715Z,74.17
2019-01-30T07:11:54.612Z,73.32
2019-01-30T07:15:00.563Z,72.77
2019-01-30T07:18:07.517Z,71.77
2019-01-30T07:21:13.519Z,71.25
2019-01-30T07:24:19.427Z,71.40
2019-01-30T07:27:25.421Z,71.43
2019-01-30T07:30:36.339Z,70.86
2019-01-30T07:33:42.145Z,70.16
2019-01-30T07:36:47.987Z,69.93
2019-01-30T07:39:54.057Z,70.16
2019-01-30T07:42:59.924Z,70.33
2019-01-30T07:46:06.241Z,70.56
2019-01-30T07:49:12.096Z,71.48
2019-01-30T07:52:18.126Z,71.34
2019-01-30T07:55:24.197Z,71.45
2019-01-30T07:58:30.118Z,71.37
2019-01-30T08:01:36.094Z,71.35
2019-01-30T08:04:42.056Z,70.90
2019-01-30T08:07:49.041Z,71.43
2019-01-30T08:10:54.889Z,71.50
2019-01-30T08:14:01.925Z,71.76
2019-01-30T08:17:08.182Z,73.42
2019-01-30T08:20:17.070Z,72.16
2019-01-30T08:23:23.144Z,71.98
2019-01-30T08:26:29.205Z,71.97
2019-01-30T08:29:35.316Z,74.58
2019-01-30T08:32:41.343Z,72.74
2019-01-30T08:35:47.277Z,71.83
2019-01-30T08:38:54.116Z,71.27
2019-01-30T08:42:00.208Z,71.61
2019-01-30T08:45:07.361Z,71.07
2019-01-30T08:48:13.340Z,72.18
2019-01-30T08:51:19.212Z,72.13
2019-01-30T08:54:25.216Z,70.95
2019-01-30T08:57:31.282Z,70.72
2019-01-30T09:00:37.206Z,70.21
2019-01-30T09:03:43.116Z,69.66
2019-01-30T09:06:49.014Z,68.90
2019-01-30T09:09:54.981Z,69.06
2019-01-30T09:13:00.891Z,71.83
2019-01-30T09:16:07.105Z,70.91
2019-01-30T09:19:13.092Z,71.18
2019-01-30T09:22:18.974Z,71.06
2019-01-30T09:25:26.845Z,70.79
2019-01-30T09:28:32.903Z,70.05
2019-01-30T09:31:38.752Z,69.32
2019-01-30T09:34:44.613Z,68.87
2019-01-30T09:37:50.523Z,68.51
2019-01-30T09:40:56.582Z,68.73
2019-01-30T09:44:02.471Z,70.32
2019-01-30T09:47:08.364Z,70.45
2019-01-30T09:50:17.090Z,69.64
2019-01-30T09:53:23.163Z,69.25
2019-01-30T09:56:29.057Z,70.59
2019-01-30T09:59:35.050Z,68.89
2019-01-30T10:02:41.079Z,67.64
2019-01-30T10:05:47.171Z,67.67
2019-01-30T10:08:53.047Z,67.69
2019-01-30T10:11:58.955Z,67.42
2019-01-30T10:15:06.387Z,67.92
2019-01-30T10:18:14.038Z,66.98
2019-01-30T10:21:20.065Z,66.64
2019-01-30T10:24:28.928Z,68.49
2019-01-30T10:27:34.184Z,70.49
2019-01-30T10:30:42.061Z,70.60
2019-01-30T10:33:47.908Z,70.14
2019-01-30T10:36:53.878Z,70.47
2019-01-30T10:40:00.317Z,70.46
2019-01-30T10:43:06.867Z,69.29
2019-01-30T10:46:12.748Z,69.15
2019-01-30T10:49:18.750Z,69.63
2019-01-30T10:52:24.711Z,69.92
2019-01-30T10:55:32.036Z,70.04
2019-01-30T10:58:38.057Z,69.21
2019-01-30T11:01:44.226Z,68.92
2019-01-30T11:04:51.088Z,69.58
2019-01-30T11:07:57.229Z,69.38
2019-01-30T11:11:08.066Z,68.49
2019-01-30T11:14:10.831Z,68.67
2019-01-30T11:17:16.794Z,67.21
2019-01-30T11:20:23.215Z,66.62
2019-01-30T11:23:29.352Z,65.88
2019-01-30T11:26:36.545Z,65.18
2019-01-30T11:29:42.851Z,64.90
2019-01-30T11:32:48.716Z,64.13
2019-01-30T11:35:54.706Z,62.85
2019-01-30T11:39:00.598Z,63.21
2019-01-30T11:42:08.165Z,62.89
2019-01-30T11:45:17.573Z,62.18
2019-01-30T11:48:23.524Z,61.88
2019-01-30T11:51:29.490Z,60.56
2019-01-30T11:54:38.953Z,59.34
2019-01-30T11:57:43.195Z,58.86
2019-01-30T12:01:00.237Z,59.93
2019-01-30T12:04:06.343Z,58.27
2019-01-30T12:07:12.359Z,58.92
2019-01-30T12:10:18.353Z,60.10
2019-01-30T12:13:24.477Z,60.01
2019-01-30T12:16:30.530Z,59.82
2019-01-30T12:19:36.395Z,59.63
2019-01-30T12:22:42.511Z,59.81
2019-01-30T12:25:48.611Z,57.83
2019-01-30T12:28:54.466Z,57.40
2019-01-30T12:32:00.340Z,58.27
2019-01-30T12:35:06.717Z,58.43
2019-01-30T12:38:13.790Z,58.19
2019-01-30T12:41:19.798Z,58.59
2019-01-30T12:44:27.161Z,58.76
2019-01-30T12:47:33.066Z,57.00
2019-01-30T12:50:39.243Z,57.63
2019-01-30T12:53:46.769Z,57.63
2019-01-30T12:56:52.665Z,57.24
2019-01-30T12:59:58.776Z,58.10
2019-01-30T13:03:04.985Z,59.34
2019-01-30T13:06:10.852Z,59.45
2019-01-30T13:09:16.754Z,59.71
2019-01-30T13:12:22.714Z,59.83
2019-01-30T13:15:29.096Z,62.04
2019-01-30T13:18:36.067Z,62.98
2019-01-30T13:21:41.935Z,63.59
2019-01-30T13:24:47.874Z,63.84
2019-01-30T13:27:53.951Z,64.28
2019-01-30T13:30:59.884Z,65.22
2019-01-30T13:34:06.013Z,64.82
2019-01-30T13:37:11.902Z,64.51
2019-01-30T13:40:24.136Z,63.93
2019-01-30T13:43:30.144Z,63.71
2019-01-30T13:46:36.245Z,64.81
2019-01-30T13:49:42.122Z,64.90
2019-01-30T13:52:48.184Z,64.41
2019-01-30T13:55:54.196Z,64.37
2019-01-30T13:59:00.208Z,64.25
2019-01-30T14:02:06.295Z,64.84
2019-01-30T14:05:12.445Z,65.08
2019-01-30T14:08:18.436Z,65.32
2019-01-30T14:11:24.411Z,67.18
2019-01-30T14:14:30.421Z,66.64
2019-01-30T14:17:36.494Z,66.62
2019-01-30T14:20:42.485Z,66.16
2019-01-30T14:23:48.498Z,66.81
2019-01-30T14:26:54.530Z,66.41
2019-01-30T14:30:00.383Z,66.36
2019-01-30T14:33:06.605Z,66.91
2019-01-30T14:36:12.579Z,66.84
2019-01-30T14:39:18.545Z,66.41
2019-01-30T14:42:24.577Z,66.27
2019-01-30T14:45:30.597Z,66.32
2019-01-30T14:48:36.563Z,66.87
2019-01-30T14:51:42.427Z,66.98
2019-01-30T14:54:50.409Z,67.46
2019-01-30T14:57:56.655Z,67.35
2019-01-30T15:01:02.701Z,67.38
2019-01-30T15:04:08.577Z,67.69
2019-01-30T15:07:14.603Z,67.46
2019-01-30T15:10:22.072Z,67.30
2019-01-30T15:13:28.090Z,66.98
2019-01-30T15:16:33.953Z,67.25
2019-01-30T15:19:39.886Z,66.97
2019-01-30T15:22:45.836Z,67.48
2019-01-30T15:25:52.920Z,67.51
2019-01-30T15:28:58.868Z,68.69
2019-01-30T15:32:05.156Z,67.61
2019-01-30T15:35:11.212Z,67.63
2019-01-30T15:38:20.828Z,67.11
2019-01-30T15:41:26.515Z,67.97
2019-01-30T15:44:32.377Z,67.59
2019-01-30T15:47:39.348Z,64.82
2019-01-30T15:50:45.549Z,64.63
2019-01-30T15:53:51.424Z,64.03
2019-01-30T15:56:57.313Z,64.24
2019-01-30T16:00:03.206Z,64.10
2019-01-30T16:03:09.306Z,64.52
2019-01-30T16:06:15.194Z,64.48
2019-01-30T16:09:21.070Z,64.83
2019-01-30T16:12:26.938Z,65.66
2019-01-30T16:15:36.083Z,65.41
2019-01-30T16:18:42.072Z,65.64
2019-01-30T16:21:48.016Z,66.20
2019-01-30T16:24:53.950Z,65.75
2019-01-30T16:27:59.793Z,66.34
2019-01-30T16:31:05.887Z,65.82
2019-01-30T16:34:11.859Z,65.56
2019-01-30T16:37:17.820Z,65.14
2019-01-30T16:40:23.925Z,65.85
2019-01-30T16:43:29.935Z,66.45
2019-01-30T16:46:36.058Z,67.14
2019-01-30T16:49:41.905Z,66.44
2019-01-30T16:52:47.995Z,66.72
2019-01-30T16:55:53.937Z,66.17
2019-01-30T16:59:00.019Z,66.08
2019-01-30T17:02:06.307Z,65.73
2019-01-30T17:05:14.034Z,65.56
2019-01-30T17:08:19.852Z,65.17
2019-01-30T17:11:25.728Z,65.50
2019-01-30T17:14:34.591Z,65.80
2019-01-30T17:17:40.475Z,65.59
2019-01-30T17:20:46.642Z,66.18
2019-01-30T17:23:52.533Z,66.19
2019-01-30T17:27:01.827Z,65.95
2019-01-30T17:30:11.754Z,65.99
2019-01-30T17:33:18.634Z,65.58
2019-01-30T17:36:26.017Z,66.26
2019-01-30T17:39:31.885Z,65.80
2019-01-30T17:42:37.880Z,65.85
2019-01-30T17:45:43.852Z,65.62
2019-01-30T17:48:49.971Z,65.77
2019-01-30T17:51:55.817Z,66.21
2019-01-30T17:55:04.503Z,65.69
2019-01-30T17:58:11.884Z,65.34
2019-01-30T18:01:18.166Z,65.47
2019-01-30T18:04:24.156Z,65.89
2019-01-30T18:07:30.307Z,65.44
2019-01-30T18:10:36.237Z,65.43
2019-01-30T18:13:45.070Z,65.53
2019-01-30T18:16:50.059Z,65.61
2019-01-30T18:19:55.940Z,65.40
2019-01-30T18:23:02.041Z,65.10
2019-01-30T18:26:08.164Z,65.24
2019-01-30T18:29:14.040Z,65.45
2019-01-30T18:32:19.934Z,65.58
2019-01-30T18:35:26.006Z,65.83
2019-01-30T18:38:32.051Z,65.66
2019-01-30T18:41:38.023Z,65.34
2019-01-30T18:44:44.056Z,65.03
2019-01-30T18:47:50.134Z,65.16
2019-01-30T18:50:56.916Z,64.83
2019-01-30T18:54:04.093Z,64.97
2019-01-30T18:57:10.063Z,64.87
2019-01-30T19:00:27.666Z,65.14
2019-01-30T19:03:33.520Z,65.79
2019-01-30T19:06:39.397Z,65.44
2019-01-30T19:09:45.452Z,65.02
2019-01-30T19:12:51.564Z,64.97
2019-01-30T19:15:57.518Z,65.63
2019-01-30T19:19:03.522Z,65.25
2019-01-30T19:22:10.324Z,65.05
2019-01-30T19:25:16.584Z,65.08
2019-01-30T19:28:22.521Z,64.99
2019-01-30T19:31:28.419Z,64.65
2019-01-30T19:34:34.261Z,65.33
2019-01-30T19:37:40.323Z,65.78
2019-01-30T19:40:46.174Z,66.01
2019-01-30T19:43:52.041Z,66.95
2019-01-30T19:46:58.091Z,66.22
2019-01-30T19:50:04.344Z,66.09
2019-01-30T19:53:10.669Z,65.61
2019-01-30T19:56:16.627Z,65.18
2019-01-30T19:59:22.497Z,65.74
2019-01-30T20:02:28.360Z,65.62
2019-01-30T20:05:34.263Z,65.85
2019-01-30T20:08:40.328Z,66.12
2019-01-30T20:11:46.256Z,67.03
2019-01-30T20:14:52.317Z,66.62
2019-01-30T20:17:58.323Z,66.47
2019-01-30T20:21:04.293Z,66.96
2019-01-30T20:24:10.178Z,67.09
2019-01-30T20:27:16.033Z,67.28
2019-01-30T20:30:22.925Z,67.03
2019-01-30T20:33:28.923Z,67.69
2019-01-30T20:36:34.891Z,67.95
2019-01-30T20:39:40.844Z,68.47
2019-01-30T20:42:46.970Z,69.02
2019-01-30T20:45:52.941Z,69.48
2019-01-30T20:48:58.874Z,69.91
2019-01-30T20:52:04.853Z,70.26
2019-01-30T20:55:11.253Z,70.44
2019-01-30T20:58:17.312Z,70.31
2019-01-30T21:01:23.273Z,70.55
2019-01-30T21:04:29.115Z,70.90
2019-01-30T21:07:37.239Z,70.89
2019-01-30T21:10:43.347Z,70.62
2019-01-30T21:13:49.238Z,70.28
2019-01-30T21:16:55.241Z,70.15
2019-01-30T21:20:01.310Z,69.86
2019-01-30T21:23:07.827Z,70.77
2019-01-30T21:26:13.958Z,70.09
2019-01-30T21:29:19.822Z,69.64
2019-01-30T21:32:25.697Z,70.03
2019-01-30T21:35:31.770Z,69.85
2019-01-30T21:38:37.613Z,69.96
2019-01-30T21:41:43.500Z,70.12
2019-01-30T21:44:49.404Z,70.01
2019-01-30T21:47:55.455Z,69.79
2019-01-30T21:51:01.421Z,69.48
2019-01-30T21:54:08.643Z,69.45
2019-01-30T21:57:14.575Z,69.88
2019-01-30T22:00:22.596Z,69.48
2019-01-30T22:03:28.534Z,69.64
2019-01-30T22:06:34.402Z,69.76
2019-01-30T22:09:40.259Z,70.25
2019-01-30T22:12:46.127Z,70.15
2019-01-30T22:15:52.071Z,70.08
2019-01-30T22:18:58.039Z,70.21
2019-01-30T22:22:04.035Z,70.75
2019-01-30T22:25:19.928Z,69.96
2019-01-30T22:28:19.250Z,69.84
2019-01-30T22:31:25.111Z,73.21
2019-01-30T22:34:30.995Z,72.93
2019-01-30T22:37:36.865Z,72.42
2019-01-30T22:40:42.814Z,70.98
2019-01-30T22:43:48.703Z,70.42
2019-01-30T22:46:54.585Z,70.66
2019-01-30T22:50:00.494Z,70.58
2019-01-30T22:53:06.667Z,70.14
2019-01-30T22:56:12.684Z,70.68
2019-01-30T22:59:18.551Z,70.30
2019-01-30T23:02:25.094Z,70.51
2019-01-30T23:06:03.080Z,70.35
2019-01-30T23:09:43.925Z,70.04
2019-01-30T23:13:20.397Z,69.69
2019-01-30T23:17:05.933Z,69.99
2019-01-30T23:20:18.362Z,69.98
2019-01-30T23:23:55.878Z,69.87
2019-01-30T23:27:10.518Z,69.78
2019-01-30T23:30:42.110Z,69.89
2019-01-30T23:34:30.290Z,70.17
2019-01-30T23:38:41.236Z,70.51
2019-01-30T23:42:36.551Z,72.08
2019-01-30T23:45:54.051Z,72.22
2019-01-30T23:49:41.116Z,71.61
2019-01-30T23:53:24.557Z,71.42
2019-01-30T23:57:09.956Z,71.43
